Terminal Aerodrome Forecast
Issued by NWS Cleveland, OH

Home | Current Version | Previous Version | Graphics & Text | Print | Product List | Glossary Off
Versions: 1 2 3 4 5 6 7 8 9 10 11 12 13 14 15 16 17 18 19 20 21 22 23 24 25 26 27 28 29 30 31

000
FTUS41 KCLE 231400 AAB
TAFCLE
TAF AMD
KCLE 231449Z 2315/2418 04008KT P6SM SCT020
     FM231700 04008KT P6SM SCT035
     FM240000 06006KT P6SM SCT250
     FM240600 09004KT 5SM BR SCT250
     FM240900 09004KT 2SM BR SCT006
     FM241300 09008KT P6SM SCT015=

USA.gov is the U.S. government's official web portal to all federal, state and local government web resources and services.